sensor_id;sensor_type;location;lat;lon;timestamp;P1;durP1;ratioP1;P2;durP2;ratioP2
21424;SDS011;10873;51.132;16.848;2023-05-10T00:01:23;4.70;;;3.10;;
21424;SDS011;10873;51.132;16.848;2023-05-10T00:03:51;4.70;;;2.72;;
21424;SDS011;10873;51.132;16.848;2023-05-10T00:06:17;3.85;;;2.92;;
21424;SDS011;10873;51.132;16.848;2023-05-10T00:08:43;4.43;;;3.03;;
21424;SDS011;10873;51.132;16.848;2023-05-10T00:11:10;3.78;;;3.13;;
21424;SDS011;10873;51.132;16.848;2023-05-10T00:13:37;5.10;;;3.20;;
21424;SDS011;10873;51.132;16.848;2023-05-10T00:16:03;4.88;;;3.05;;
21424;SDS011;10873;51.132;16.848;2023-05-10T00:18:30;5.00;;;3.20;;
21424;SDS011;10873;51.132;16.848;2023-05-10T00:20:58;4.00;;;2.92;;
21424;SDS011;10873;51.132;16.848;2023-05-10T00:23:24;6.10;;;3.40;;
21424;SDS011;10873;51.132;16.848;2023-05-10T00:25:50;4.80;;;3.40;;
21424;SDS011;10873;51.132;16.848;2023-05-10T00:28:16;4.53;;;3.17;;
21424;SDS011;10873;51.132;16.848;2023-05-10T00:30:42;4.75;;;3.20;;
21424;SDS011;10873;51.132;16.848;2023-05-10T00:33:08;3.75;;;3.05;;
21424;SDS011;10873;51.132;16.848;2023-05-10T00:35:34;4.97;;;3.28;;
21424;SDS011;10873;51.132;16.848;2023-05-10T00:38:03;4.80;;;3.08;;
21424;SDS011;10873;51.132;16.848;2023-05-10T00:40:29;4.85;;;3.40;;
21424;SDS011;10873;51.132;16.848;2023-05-10T00:42:56;5.35;;;3.22;;
21424;SDS011;10873;51.132;16.848;2023-05-10T00:45:22;4.47;;;3.20;;
21424;SDS011;10873;51.132;16.848;2023-05-10T00:47:48;4.65;;;3.00;;
21424;SDS011;10873;51.132;16.848;2023-05-10T00:50:15;5.68;;;3.45;;
21424;SDS011;10873;51.132;16.848;2023-05-10T00:52:42;4.57;;;3.30;;
21424;SDS011;10873;51.132;16.848;2023-05-10T00:55:10;5.80;;;3.38;;
21424;SDS011;10873;51.132;16.848;2023-05-10T00:57:37;4.50;;;3.35;;
21424;SDS011;10873;51.132;16.848;2023-05-10T01:00:04;4.00;;;3.17;;
21424;SDS011;10873;51.132;16.848;2023-05-10T01:02:32;6.03;;;3.42;;
21424;SDS011;10873;51.132;16.848;2023-05-10T01:04:59;6.93;;;3.47;;
21424;SDS011;10873;51.132;16.848;2023-05-10T01:07:27;5.85;;;3.13;;
21424;SDS011;10873;51.132;16.848;2023-05-10T01:09:53;6.10;;;3.67;;
21424;SDS011;10873;51.132;16.848;2023-05-10T01:12:20;5.35;;;3.67;;
21424;SDS011;10873;51.132;16.848;2023-05-10T01:14:47;5.22;;;3.70;;
21424;SDS011;10873;51.132;16.848;2023-05-10T01:17:13;4.15;;;3.22;;
21424;SDS011;10873;51.132;16.848;2023-05-10T01:19:41;3.92;;;3.45;;
21424;SDS011;10873;51.132;16.848;2023-05-10T01:22:12;3.88;;;3.47;;
21424;SDS011;10873;51.132;16.848;2023-05-10T01:25:04;5.53;;;3.03;;
21424;SDS011;10873;51.132;16.848;2023-05-10T01:27:53;5.72;;;3.10;;
21424;SDS011;10873;51.132;16.848;2023-05-10T01:30:53;4.22;;;3.30;;
21424;SDS011;10873;51.132;16.848;2023-05-10T01:33:36;4.25;;;3.30;;
21424;SDS011;10873;51.132;16.848;2023-05-10T01:36:08;4.28;;;3.00;;
21424;SDS011;10873;51.132;16.848;2023-05-10T01:38:42;4.82;;;3.35;;
21424;SDS011;10873;51.132;16.848;2023-05-10T01:41:17;5.93;;;3.50;;
21424;SDS011;10873;51.132;16.848;2023-05-10T01:43:50;4.38;;;3.58;;
21424;SDS011;10873;51.132;16.848;2023-05-10T01:46:23;4.00;;;3.35;;
21424;SDS011;10873;51.132;16.848;2023-05-10T01:48:54;4.97;;;3.45;;
21424;SDS011;10873;51.132;16.848;2023-05-10T01:51:23;3.80;;;3.28;;
21424;SDS011;10873;51.132;16.848;2023-05-10T01:53:54;7.78;;;3.60;;
21424;SDS011;10873;51.132;16.848;2023-05-10T01:56:25;5.30;;;3.63;;
21424;SDS011;10873;51.132;16.848;2023-05-10T01:58:53;5.03;;;3.55;;
21424;SDS011;10873;51.132;16.848;2023-05-10T02:01:21;5.75;;;3.40;;
21424;SDS011;10873;51.132;16.848;2023-05-10T02:03:49;4.72;;;3.40;;
21424;SDS011;10873;51.132;16.848;2023-05-10T02:06:19;4.38;;;3.55;;
21424;SDS011;10873;51.132;16.848;2023-05-10T02:08:47;5.93;;;3.42;;
21424;SDS011;10873;51.132;16.848;2023-05-10T02:11:15;4.93;;;3.33;;
21424;SDS011;10873;51.132;16.848;2023-05-10T02:13:44;4.35;;;3.50;;
21424;SDS011;10873;51.132;16.848;2023-05-10T02:16:12;5.70;;;3.80;;
21424;SDS011;10873;51.132;16.848;2023-05-10T02:18:39;6.10;;;3.88;;
21424;SDS011;10873;51.132;16.848;2023-05-10T02:21:06;4.70;;;3.50;;
21424;SDS011;10873;51.132;16.848;2023-05-10T02:23:36;5.03;;;3.45;;
21424;SDS011;10873;51.132;16.848;2023-05-10T02:26:03;4.28;;;3.17;;
21424;SDS011;10873;51.132;16.848;2023-05-10T02:28:32;5.55;;;3.38;;
21424;SDS011;10873;51.132;16.848;2023-05-10T02:31:00;5.05;;;3.20;;
21424;SDS011;10873;51.132;16.848;2023-05-10T02:33:27;4.15;;;3.40;;
21424;SDS011;10873;51.132;16.848;2023-05-10T02:35:55;4.90;;;3.50;;
21424;SDS011;10873;51.132;16.848;2023-05-10T02:38:22;4.32;;;3.38;;
21424;SDS011;10873;51.132;16.848;2023-05-10T02:40:52;6.28;;;3.60;;
21424;SDS011;10873;51.132;16.848;2023-05-10T02:43:19;6.25;;;3.45;;
21424;SDS011;10873;51.132;16.848;2023-05-10T02:45:49;4.57;;;3.63;;
21424;SDS011;10873;51.132;16.848;2023-05-10T02:48:15;5.80;;;3.70;;
21424;SDS011;10873;51.132;16.848;2023-05-10T02:50:42;5.57;;;4.03;;
21424;SDS011;10873;51.132;16.848;2023-05-10T02:53:11;5.32;;;3.50;;
21424;SDS011;10873;51.132;16.848;2023-05-10T02:55:44;4.53;;;3.53;;
21424;SDS011;10873;51.132;16.848;2023-05-10T02:58:14;5.38;;;3.72;;
21424;SDS011;10873;51.132;16.848;2023-05-10T03:00:40;6.30;;;3.95;;
21424;SDS011;10873;51.132;16.848;2023-05-10T03:03:06;4.57;;;3.40;;
21424;SDS011;10873;51.132;16.848;2023-05-10T03:05:32;4.82;;;3.78;;
21424;SDS011;10873;51.132;16.848;2023-05-10T03:07:59;4.28;;;3.80;;
21424;SDS011;10873;51.132;16.848;2023-05-10T03:10:29;4.40;;;3.45;;
21424;SDS011;10873;51.132;16.848;2023-05-10T03:13:00;5.57;;;3.80;;
21424;SDS011;10873;51.132;16.848;2023-05-10T03:15:37;7.75;;;3.90;;
21424;SDS011;10873;51.132;16.848;2023-05-10T03:18:15;4.80;;;3.53;;
21424;SDS011;10873;51.132;16.848;2023-05-10T03:20:46;5.30;;;3.53;;
21424;SDS011;10873;51.132;16.848;2023-05-10T03:23:17;5.40;;;3.95;;
21424;SDS011;10873;51.132;16.848;2023-05-10T03:25:48;5.13;;;3.80;;
21424;SDS011;10873;51.132;16.848;2023-05-10T03:28:16;5.43;;;4.00;;
21424;SDS011;10873;51.132;16.848;2023-05-10T03:30:45;8.50;;;4.60;;
21424;SDS011;10873;51.132;16.848;2023-05-10T03:33:11;6.45;;;4.40;;
21424;SDS011;10873;51.132;16.848;2023-05-10T03:35:38;11.05;;;4.03;;
21424;SDS011;10873;51.132;16.848;2023-05-10T03:38:04;7.45;;;4.15;;
21424;SDS011;10873;51.132;16.848;2023-05-10T03:40:33;9.30;;;4.50;;
21424;SDS011;10873;51.132;16.848;2023-05-10T03:43:00;6.90;;;3.88;;
21424;SDS011;10873;51.132;16.848;2023-05-10T03:45:26;6.45;;;4.15;;
21424;SDS011;10873;51.132;16.848;2023-05-10T03:47:54;6.45;;;4.00;;
21424;SDS011;10873;51.132;16.848;2023-05-10T03:50:26;11.95;;;4.30;;
21424;SDS011;10873;51.132;16.848;2023-05-10T03:52:53;6.65;;;3.78;;
21424;SDS011;10873;51.132;16.848;2023-05-10T03:55:20;5.38;;;3.92;;
21424;SDS011;10873;51.132;16.848;2023-05-10T03:57:48;7.88;;;4.00;;
21424;SDS011;10873;51.132;16.848;2023-05-10T04:00:16;6.40;;;4.35;;
21424;SDS011;10873;51.132;16.848;2023-05-10T04:02:42;8.05;;;4.43;;
21424;SDS011;10873;51.132;16.848;2023-05-10T04:05:10;7.32;;;3.75;;
21424;SDS011;10873;51.132;16.848;2023-05-10T04:07:37;8.75;;;4.50;;
21424;SDS011;10873;51.132;16.848;2023-05-10T04:10:03;6.97;;;3.92;;
21424;SDS011;10873;51.132;16.848;2023-05-10T04:12:30;6.05;;;3.92;;
21424;SDS011;10873;51.132;16.848;2023-05-10T04:14:59;5.90;;;4.07;;
21424;SDS011;10873;51.132;16.848;2023-05-10T04:17:25;8.85;;;4.32;;
21424;SDS011;10873;51.132;16.848;2023-05-10T04:19:51;6.85;;;4.07;;
21424;SDS011;10873;51.132;16.848;2023-05-10T04:22:21;5.60;;;3.85;;
21424;SDS011;10873;51.132;16.848;2023-05-10T04:24:47;9.55;;;4.28;;
21424;SDS011;10873;51.132;16.848;2023-05-10T04:27:16;11.00;;;4.32;;
21424;SDS011;10873;51.132;16.848;2023-05-10T04:29:42;6.13;;;4.05;;
21424;SDS011;10873;51.132;16.848;2023-05-10T04:32:08;8.20;;;4.53;;
21424;SDS011;10873;51.132;16.848;2023-05-10T04:34:35;8.23;;;4.60;;
21424;SDS011;10873;51.132;16.848;2023-05-10T04:37:01;6.90;;;4.38;;
21424;SDS011;10873;51.132;16.848;2023-05-10T04:39:28;7.88;;;4.25;;
21424;SDS011;10873;51.132;16.848;2023-05-10T04:41:54;9.45;;;4.43;;
21424;SDS011;10873;51.132;16.848;2023-05-10T04:44:20;6.45;;;4.32;;
21424;SDS011;10873;51.132;16.848;2023-05-10T04:46:46;8.65;;;4.65;;
21424;SDS011;10873;51.132;16.848;2023-05-10T04:49:12;8.00;;;4.43;;
21424;SDS011;10873;51.132;16.848;2023-05-10T04:51:39;7.93;;;4.22;;
21424;SDS011;10873;51.132;16.848;2023-05-10T04:54:05;6.47;;;4.20;;
21424;SDS011;10873;51.132;16.848;2023-05-10T04:56:33;7.20;;;4.15;;
21424;SDS011;10873;51.132;16.848;2023-05-10T04:58:59;7.07;;;4.05;;
21424;SDS011;10873;51.132;16.848;2023-05-10T05:01:25;6.35;;;3.95;;
21424;SDS011;10873;51.132;16.848;2023-05-10T05:03:51;7.82;;;4.05;;
21424;SDS011;10873;51.132;16.848;2023-05-10T05:06:18;7.57;;;4.30;;
21424;SDS011;10873;51.132;16.848;2023-05-10T05:08:46;17.10;;;5.53;;
21424;SDS011;10873;51.132;16.848;2023-05-10T05:11:12;17.65;;;5.25;;
21424;SDS011;10873;51.132;16.848;2023-05-10T05:13:39;21.08;;;4.75;;
21424;SDS011;10873;51.132;16.848;2023-05-10T05:16:05;16.70;;;4.65;;
21424;SDS011;10873;51.132;16.848;2023-05-10T05:18:32;13.90;;;5.30;;
21424;SDS011;10873;51.132;16.848;2023-05-10T05:20:58;16.60;;;4.75;;
21424;SDS011;10873;51.132;16.848;2023-05-10T05:23:24;10.15;;;4.80;;
21424;SDS011;10873;51.132;16.848;2023-05-10T05:25:51;16.05;;;4.75;;
21424;SDS011;10873;51.132;16.848;2023-05-10T05:28:17;8.07;;;4.30;;
21424;SDS011;10873;51.132;16.848;2023-05-10T05:30:45;12.48;;;4.28;;
21424;SDS011;10873;51.132;16.848;2023-05-10T05:33:11;7.30;;;4.32;;
21424;SDS011;10873;51.132;16.848;2023-05-10T05:35:38;13.38;;;4.88;;
21424;SDS011;10873;51.132;16.848;2023-05-10T05:38:04;8.40;;;4.18;;
21424;SDS011;10873;51.132;16.848;2023-05-10T05:40:31;9.35;;;4.53;;
21424;SDS011;10873;51.132;16.848;2023-05-10T05:42:57;8.77;;;4.50;;
21424;SDS011;10873;51.132;16.848;2023-05-10T05:45:23;6.75;;;4.78;;
21424;SDS011;10873;51.132;16.848;2023-05-10T05:47:50;7.55;;;4.10;;
21424;SDS011;10873;51.132;16.848;2023-05-10T05:50:17;10.75;;;4.80;;
21424;SDS011;10873;51.132;16.848;2023-05-10T05:52:43;10.35;;;4.45;;
21424;SDS011;10873;51.132;16.848;2023-05-10T05:55:09;10.88;;;5.43;;
21424;SDS011;10873;51.132;16.848;2023-05-10T05:57:35;10.73;;;5.55;;
21424;SDS011;10873;51.132;16.848;2023-05-10T06:00:01;8.00;;;5.50;;
21424;SDS011;10873;51.132;16.848;2023-05-10T06:02:28;9.05;;;5.45;;
21424;SDS011;10873;51.132;16.848;2023-05-10T06:04:55;9.90;;;5.45;;
21424;SDS011;10873;51.132;16.848;2023-05-10T06:07:22;9.63;;;5.50;;
21424;SDS011;10873;51.132;16.848;2023-05-10T06:09:48;10.90;;;5.32;;
21424;SDS011;10873;51.132;16.848;2023-05-10T06:12:14;10.48;;;5.18;;
21424;SDS011;10873;51.132;16.848;2023-05-10T06:14:40;8.07;;;4.50;;
21424;SDS011;10873;51.132;16.848;2023-05-10T06:17:06;7.90;;;4.78;;
21424;SDS011;10873;51.132;16.848;2023-05-10T06:19:32;10.13;;;4.57;;
21424;SDS011;10873;51.132;16.848;2023-05-10T06:21:59;9.95;;;4.78;;
21424;SDS011;10873;51.132;16.848;2023-05-10T06:24:25;8.18;;;4.53;;
21424;SDS011;10873;51.132;16.848;2023-05-10T06:26:52;10.98;;;5.13;;
21424;SDS011;10873;51.132;16.848;2023-05-10T06:29:18;7.10;;;4.00;;
21424;SDS011;10873;51.132;16.848;2023-05-10T06:31:44;6.57;;;3.92;;
21424;SDS011;10873;51.132;16.848;2023-05-10T06:34:10;7.22;;;4.28;;
21424;SDS011;10873;51.132;16.848;2023-05-10T06:36:37;7.00;;;4.32;;
21424;SDS011;10873;51.132;16.848;2023-05-10T06:39:04;7.03;;;4.00;;
21424;SDS011;10873;51.132;16.848;2023-05-10T06:41:31;5.07;;;3.92;;
21424;SDS011;10873;51.132;16.848;2023-05-10T06:43:56;9.70;;;4.28;;
21424;SDS011;10873;51.132;16.848;2023-05-10T06:46:23;7.72;;;4.05;;
21424;SDS011;10873;51.132;16.848;2023-05-10T06:48:49;6.55;;;4.05;;
21424;SDS011;10873;51.132;16.848;2023-05-10T06:51:15;6.80;;;3.90;;
21424;SDS011;10873;51.132;16.848;2023-05-10T06:53:41;6.72;;;3.78;;
21424;SDS011;10873;51.132;16.848;2023-05-10T06:56:08;5.50;;;3.63;;
21424;SDS011;10873;51.132;16.848;2023-05-10T06:58:34;13.18;;;4.10;;
21424;SDS011;10873;51.132;16.848;2023-05-10T07:01:01;6.50;;;3.83;;
21424;SDS011;10873;51.132;16.848;2023-05-10T07:03:28;5.65;;;3.45;;
21424;SDS011;10873;51.132;16.848;2023-05-10T07:05:54;7.10;;;3.75;;
21424;SDS011;10873;51.132;16.848;2023-05-10T07:08:28;6.25;;;3.33;;
21424;SDS011;10873;51.132;16.848;2023-05-10T07:10:58;9.23;;;3.28;;
21424;SDS011;10873;51.132;16.848;2023-05-10T07:13:26;9.10;;;3.40;;
21424;SDS011;10873;51.132;16.848;2023-05-10T07:15:53;5.63;;;3.13;;
21424;SDS011;10873;51.132;16.848;2023-05-10T07:18:19;7.55;;;3.20;;
21424;SDS011;10873;51.132;16.848;2023-05-10T07:20:45;6.88;;;3.15;;
21424;SDS011;10873;51.132;16.848;2023-05-10T07:23:11;7.05;;;3.17;;
21424;SDS011;10873;51.132;16.848;2023-05-10T07:25:37;5.32;;;3.00;;
21424;SDS011;10873;51.132;16.848;2023-05-10T07:28:03;4.35;;;2.83;;
21424;SDS011;10873;51.132;16.848;2023-05-10T07:30:31;10.32;;;2.97;;
21424;SDS011;10873;51.132;16.848;2023-05-10T07:32:56;11.40;;;3.13;;
21424;SDS011;10873;51.132;16.848;2023-05-10T07:35:23;7.68;;;3.38;;
21424;SDS011;10873;51.132;16.848;2023-05-10T07:37:49;6.82;;;3.30;;
21424;SDS011;10873;51.132;16.848;2023-05-10T07:40:15;7.97;;;3.00;;
21424;SDS011;10873;51.132;16.848;2023-05-10T07:42:41;8.43;;;3.58;;
21424;SDS011;10873;51.132;16.848;2023-05-10T07:45:07;9.02;;;3.03;;
21424;SDS011;10873;51.132;16.848;2023-05-10T07:47:35;10.27;;;3.10;;
21424;SDS011;10873;51.132;16.848;2023-05-10T07:50:01;10.18;;;3.40;;
21424;SDS011;10873;51.132;16.848;2023-05-10T07:52:27;8.05;;;3.38;;
21424;SDS011;10873;51.132;16.848;2023-05-10T07:54:53;12.00;;;3.30;;
21424;SDS011;10873;51.132;16.848;2023-05-10T07:57:19;9.55;;;3.13;;
21424;SDS011;10873;51.132;16.848;2023-05-10T07:59:46;7.43;;;2.88;;
21424;SDS011;10873;51.132;16.848;2023-05-10T08:02:12;5.78;;;2.58;;
21424;SDS011;10873;51.132;16.848;2023-05-10T08:04:39;7.93;;;2.95;;
21424;SDS011;10873;51.132;16.848;2023-05-10T08:07:05;8.40;;;3.38;;
21424;SDS011;10873;51.132;16.848;2023-05-10T08:09:31;6.78;;;2.90;;
21424;SDS011;10873;51.132;16.848;2023-05-10T08:11:57;10.82;;;3.42;;
21424;SDS011;10873;51.132;16.848;2023-05-10T08:14:24;12.35;;;3.42;;
21424;SDS011;10873;51.132;16.848;2023-05-10T08:16:50;9.55;;;3.10;;
21424;SDS011;10873;51.132;16.848;2023-05-10T08:19:17;10.07;;;3.00;;
21424;SDS011;10873;51.132;16.848;2023-05-10T08:21:46;10.60;;;3.45;;
21424;SDS011;10873;51.132;16.848;2023-05-10T08:24:12;30.73;;;4.78;;
21424;SDS011;10873;51.132;16.848;2023-05-10T08:26:38;18.45;;;3.72;;
21424;SDS011;10873;51.132;16.848;2023-05-10T08:29:04;10.10;;;3.70;;
21424;SDS011;10873;51.132;16.848;2023-05-10T08:31:30;9.70;;;2.97;;
21424;SDS011;10873;51.132;16.848;2023-05-10T08:33:56;16.10;;;3.25;;
21424;SDS011;10873;51.132;16.848;2023-05-10T08:36:22;13.98;;;3.28;;
21424;SDS011;10873;51.132;16.848;2023-05-10T08:38:51;10.32;;;2.70;;
21424;SDS011;10873;51.132;16.848;2023-05-10T08:41:20;14.30;;;2.72;;
21424;SDS011;10873;51.132;16.848;2023-05-10T08:43:47;14.20;;;2.75;;
21424;SDS011;10873;51.132;16.848;2023-05-10T08:46:13;13.02;;;3.13;;
21424;SDS011;10873;51.132;16.848;2023-05-10T08:48:43;6.03;;;2.50;;
21424;SDS011;10873;51.132;16.848;2023-05-10T08:51:09;10.40;;;2.70;;
21424;SDS011;10873;51.132;16.848;2023-05-10T08:53:38;10.15;;;2.70;;
21424;SDS011;10873;51.132;16.848;2023-05-10T08:56:06;5.10;;;2.70;;
21424;SDS011;10873;51.132;16.848;2023-05-10T08:58:33;13.27;;;3.20;;
21424;SDS011;10873;51.132;16.848;2023-05-10T09:00:59;7.05;;;2.35;;
21424;SDS011;10873;51.132;16.848;2023-05-10T09:03:26;5.00;;;2.40;;
21424;SDS011;10873;51.132;16.848;2023-05-10T09:05:52;9.43;;;2.35;;
21424;SDS011;10873;51.132;16.848;2023-05-10T09:08:21;6.53;;;2.58;;
21424;SDS011;10873;51.132;16.848;2023-05-10T09:10:50;3.05;;;2.00;;
21424;SDS011;10873;51.132;16.848;2023-05-10T09:13:18;4.00;;;2.40;;
21424;SDS011;10873;51.132;16.848;2023-05-10T09:15:44;5.05;;;2.47;;
21424;SDS011;10873;51.132;16.848;2023-05-10T09:18:11;8.13;;;2.72;;
21424;SDS011;10873;51.132;16.848;2023-05-10T09:20:37;10.63;;;2.70;;
21424;SDS011;10873;51.132;16.848;2023-05-10T09:23:03;12.80;;;2.75;;
21424;SDS011;10873;51.132;16.848;2023-05-10T09:25:30;16.85;;;2.88;;
21424;SDS011;10873;51.132;16.848;2023-05-10T09:27:58;11.82;;;2.95;;
21424;SDS011;10873;51.132;16.848;2023-05-10T09:30:26;12.40;;;2.47;;
21424;SDS011;10873;51.132;16.848;2023-05-10T09:32:54;15.35;;;2.33;;
21424;SDS011;10873;51.132;16.848;2023-05-10T09:35:21;13.50;;;2.78;;
21424;SDS011;10873;51.132;16.848;2023-05-10T09:37:50;8.25;;;2.78;;
21424;SDS011;10873;51.132;16.848;2023-05-10T09:40:19;15.43;;;2.55;;
21424;SDS011;10873;51.132;16.848;2023-05-10T09:42:51;21.02;;;2.88;;
21424;SDS011;10873;51.132;16.848;2023-05-10T09:45:17;14.77;;;2.90;;
21424;SDS011;10873;51.132;16.848;2023-05-10T09:47:45;10.65;;;2.55;;
21424;SDS011;10873;51.132;16.848;2023-05-10T09:50:11;7.70;;;2.70;;
21424;SDS011;10873;51.132;16.848;2023-05-10T09:52:45;13.88;;;2.70;;
21424;SDS011;10873;51.132;16.848;2023-05-10T09:55:12;6.57;;;2.55;;
21424;SDS011;10873;51.132;16.848;2023-05-10T09:57:38;5.93;;;2.42;;
21424;SDS011;10873;51.132;16.848;2023-05-10T10:00:05;10.98;;;2.35;;
21424;SDS011;10873;51.132;16.848;2023-05-10T10:02:32;4.13;;;2.45;;
21424;SDS011;10873;51.132;16.848;2023-05-10T10:05:01;8.43;;;2.15;;
21424;SDS011;10873;51.132;16.848;2023-05-10T10:07:28;6.53;;;2.30;;
21424;SDS011;10873;51.132;16.848;2023-05-10T10:09:54;7.75;;;2.58;;
21424;SDS011;10873;51.132;16.848;2023-05-10T10:12:21;6.55;;;2.67;;
21424;SDS011;10873;51.132;16.848;2023-05-10T10:14:47;5.35;;;2.45;;
21424;SDS011;10873;51.132;16.848;2023-05-10T10:17:15;12.35;;;2.95;;
21424;SDS011;10873;51.132;16.848;2023-05-10T10:19:41;14.27;;;2.88;;
21424;SDS011;10873;51.132;16.848;2023-05-10T10:22:09;5.43;;;2.50;;
21424;SDS011;10873;51.132;16.848;2023-05-10T10:24:38;14.98;;;2.75;;
21424;SDS011;10873;51.132;16.848;2023-05-10T10:27:11;22.05;;;3.33;;
21424;SDS011;10873;51.132;16.848;2023-05-10T10:29:47;48.67;;;4.03;;
21424;SDS011;10873;51.132;16.848;2023-05-10T10:32:23;37.20;;;3.42;;
21424;SDS011;10873;51.132;16.848;2023-05-10T10:34:53;20.92;;;3.47;;
21424;SDS011;10873;51.132;16.848;2023-05-10T10:37:22;46.70;;;4.25;;
21424;SDS011;10873;51.132;16.848;2023-05-10T10:39:48;30.98;;;3.83;;
21424;SDS011;10873;51.132;16.848;2023-05-10T10:42:15;67.72;;;4.90;;
21424;SDS011;10873;51.132;16.848;2023-05-10T10:45:11;28.60;;;3.30;;
21424;SDS011;10873;51.132;16.848;2023-05-10T10:47:38;22.40;;;2.80;;
21424;SDS011;10873;51.132;16.848;2023-05-10T10:50:05;25.85;;;3.40;;
21424;SDS011;10873;51.132;16.848;2023-05-10T10:52:35;20.30;;;3.15;;
21424;SDS011;10873;51.132;16.848;2023-05-10T10:55:02;17.92;;;2.80;;
21424;SDS011;10873;51.132;16.848;2023-05-10T10:57:31;23.17;;;3.40;;
21424;SDS011;10873;51.132;16.848;2023-05-10T11:02:44;30.90;;;4.43;;
21424;SDS011;10873;51.132;16.848;2023-05-10T11:08:09;11.10;;;2.70;;
21424;SDS011;10873;51.132;16.848;2023-05-10T11:10:37;9.98;;;2.88;;
21424;SDS011;10873;51.132;16.848;2023-05-10T11:13:04;15.50;;;2.40;;
21424;SDS011;10873;51.132;16.848;2023-05-10T11:15:32;7.05;;;2.20;;
21424;SDS011;10873;51.132;16.848;2023-05-10T11:17:59;7.18;;;2.42;;
21424;SDS011;10873;51.132;16.848;2023-05-10T11:20:41;7.43;;;2.17;;
21424;SDS011;10873;51.132;16.848;2023-05-10T11:23:14;6.88;;;2.05;;
21424;SDS011;10873;51.132;16.848;2023-05-10T11:25:41;9.13;;;1.90;;
21424;SDS011;10873;51.132;16.848;2023-05-10T11:28:09;2.05;;;1.65;;
21424;SDS011;10873;51.132;16.848;2023-05-10T11:30:35;5.63;;;2.25;;
21424;SDS011;10873;51.132;16.848;2023-05-10T11:33:03;2.67;;;1.83;;
21424;SDS011;10873;51.132;16.848;2023-05-10T11:35:29;6.78;;;2.10;;
21424;SDS011;10873;51.132;16.848;2023-05-10T11:37:55;3.97;;;2.03;;
21424;SDS011;10873;51.132;16.848;2023-05-10T11:40:22;13.13;;;2.42;;
21424;SDS011;10873;51.132;16.848;2023-05-10T11:42:51;9.32;;;2.17;;
21424;SDS011;10873;51.132;16.848;2023-05-10T11:45:23;6.22;;;2.10;;
21424;SDS011;10873;51.132;16.848;2023-05-10T11:47:49;2.75;;;1.73;;
21424;SDS011;10873;51.132;16.848;2023-05-10T11:50:15;7.53;;;2.08;;
21424;SDS011;10873;51.132;16.848;2023-05-10T11:52:42;6.03;;;1.80;;
21424;SDS011;10873;51.132;16.848;2023-05-10T11:55:08;5.13;;;1.70;;
21424;SDS011;10873;51.132;16.848;2023-05-10T11:57:36;6.53;;;1.70;;
21424;SDS011;10873;51.132;16.848;2023-05-10T12:00:04;3.97;;;1.60;;
21424;SDS011;10873;51.132;16.848;2023-05-10T12:02:31;3.97;;;1.90;;
21424;SDS011;10873;51.132;16.848;2023-05-10T12:04:57;4.45;;;1.88;;
21424;SDS011;10873;51.132;16.848;2023-05-10T12:07:25;5.72;;;1.50;;
21424;SDS011;10873;51.132;16.848;2023-05-10T12:10:04;2.17;;;1.75;;
21424;SDS011;10873;51.132;16.848;2023-05-10T12:12:36;6.43;;;2.30;;
21424;SDS011;10873;51.132;16.848;2023-05-10T12:15:03;6.72;;;1.85;;
21424;SDS011;10873;51.132;16.848;2023-05-10T12:17:31;2.78;;;1.70;;
21424;SDS011;10873;51.132;16.848;2023-05-10T12:19:58;5.07;;;1.60;;
21424;SDS011;10873;51.132;16.848;2023-05-10T12:22:25;10.15;;;1.90;;
21424;SDS011;10873;51.132;16.848;2023-05-10T12:24:51;12.15;;;1.95;;
21424;SDS011;10873;51.132;16.848;2023-05-10T12:27:17;4.82;;;2.05;;
21424;SDS011;10873;51.132;16.848;2023-05-10T12:29:44;3.30;;;1.52;;
21424;SDS011;10873;51.132;16.848;2023-05-10T12:32:11;3.72;;;1.83;;
21424;SDS011;10873;51.132;16.848;2023-05-10T12:34:36;4.50;;;1.85;;
21424;SDS011;10873;51.132;16.848;2023-05-10T12:37:03;5.55;;;1.95;;
21424;SDS011;10873;51.132;16.848;2023-05-10T12:39:39;4.70;;;2.03;;
21424;SDS011;10873;51.132;16.848;2023-05-10T12:42:06;3.55;;;1.90;;
21424;SDS011;10873;51.132;16.848;2023-05-10T12:44:32;4.85;;;1.90;;
21424;SDS011;10873;51.132;16.848;2023-05-10T12:46:59;3.10;;;1.70;;
21424;SDS011;10873;51.132;16.848;2023-05-10T12:49:25;7.00;;;2.08;;
21424;SDS011;10873;51.132;16.848;2023-05-10T12:51:51;3.65;;;1.63;;
21424;SDS011;10873;51.132;16.848;2023-05-10T12:54:17;5.57;;;2.00;;
21424;SDS011;10873;51.132;16.848;2023-05-10T12:56:44;6.35;;;1.70;;
21424;SDS011;10873;51.132;16.848;2023-05-10T12:59:09;3.60;;;1.52;;
21424;SDS011;10873;51.132;16.848;2023-05-10T13:01:36;6.43;;;2.10;;
21424;SDS011;10873;51.132;16.848;2023-05-10T13:04:03;4.55;;;1.50;;
21424;SDS011;10873;51.132;16.848;2023-05-10T13:06:29;7.63;;;2.00;;
21424;SDS011;10873;51.132;16.848;2023-05-10T13:08:55;2.92;;;1.67;;
21424;SDS011;10873;51.132;16.848;2023-05-10T13:11:22;8.55;;;1.95;;
21424;SDS011;10873;51.132;16.848;2023-05-10T13:13:48;4.40;;;1.77;;
21424;SDS011;10873;51.132;16.848;2023-05-10T13:16:15;12.57;;;1.95;;
21424;SDS011;10873;51.132;16.848;2023-05-10T13:18:40;5.13;;;1.77;;
21424;SDS011;10873;51.132;16.848;2023-05-10T13:21:08;5.70;;;1.67;;
21424;SDS011;10873;51.132;16.848;2023-05-10T13:23:34;3.78;;;1.60;;
21424;SDS011;10873;51.132;16.848;2023-05-10T13:26:00;11.10;;;1.92;;
21424;SDS011;10873;51.132;16.848;2023-05-10T13:28:26;2.90;;;1.70;;
21424;SDS011;10873;51.132;16.848;2023-05-10T13:30:53;5.47;;;1.95;;
21424;SDS011;10873;51.132;16.848;2023-05-10T13:33:18;3.33;;;1.35;;
21424;SDS011;10873;51.132;16.848;2023-05-10T13:35:45;4.07;;;1.48;;
21424;SDS011;10873;51.132;16.848;2023-05-10T13:38:12;3.85;;;1.55;;
21424;SDS011;10873;51.132;16.848;2023-05-10T13:40:39;11.30;;;1.90;;
21424;SDS011;10873;51.132;16.848;2023-05-10T13:43:05;4.47;;;1.58;;
21424;SDS011;10873;51.132;16.848;2023-05-10T13:45:31;8.93;;;1.77;;
21424;SDS011;10873;51.132;16.848;2023-05-10T13:47:57;6.32;;;1.45;;
21424;SDS011;10873;51.132;16.848;2023-05-10T13:50:23;7.97;;;1.70;;
21424;SDS011;10873;51.132;16.848;2023-05-10T13:52:49;5.80;;;1.50;;
21424;SDS011;10873;51.132;16.848;2023-05-10T13:55:16;5.20;;;1.60;;
21424;SDS011;10873;51.132;16.848;2023-05-10T13:57:42;5.35;;;1.60;;
21424;SDS011;10873;51.132;16.848;2023-05-10T14:00:09;5.53;;;1.60;;
21424;SDS011;10873;51.132;16.848;2023-05-10T14:02:35;2.65;;;1.88;;
21424;SDS011;10873;51.132;16.848;2023-05-10T14:05:02;5.22;;;2.15;;
21424;SDS011;10873;51.132;16.848;2023-05-10T14:07:28;8.00;;;1.58;;
21424;SDS011;10873;51.132;16.848;2023-05-10T14:09:54;2.28;;;1.40;;
21424;SDS011;10873;51.132;16.848;2023-05-10T14:12:21;6.03;;;1.27;;
21424;SDS011;10873;51.132;16.848;2023-05-10T14:14:48;4.20;;;1.73;;
21424;SDS011;10873;51.132;16.848;2023-05-10T14:17:14;2.20;;;1.58;;
21424;SDS011;10873;51.132;16.848;2023-05-10T14:19:40;1.83;;;1.50;;
21424;SDS011;10873;51.132;16.848;2023-05-10T14:22:06;2.97;;;1.55;;
21424;SDS011;10873;51.132;16.848;2023-05-10T14:24:32;2.55;;;1.65;;
21424;SDS011;10873;51.132;16.848;2023-05-10T14:26:58;5.22;;;1.63;;
21424;SDS011;10873;51.132;16.848;2023-05-10T14:29:26;3.70;;;1.77;;
21424;SDS011;10873;51.132;16.848;2023-05-10T14:31:52;2.35;;;1.38;;
21424;SDS011;10873;51.132;16.848;2023-05-10T14:34:18;3.05;;;1.40;;
21424;SDS011;10873;51.132;16.848;2023-05-10T14:36:45;4.95;;;1.70;;
21424;SDS011;10873;51.132;16.848;2023-05-10T14:39:11;4.93;;;1.45;;